sensor_id;sensor_type;location;lat;lon;timestamp;pressure;altitude;pressure_sealevel;temperature;humidity
54924;BME280;40825;52.270;20.984;2022-12-29T00:01:45;100327.81;;;5.32;73.80
54924;BME280;40825;52.270;20.984;2022-12-29T00:04:13;100331.85;;;5.32;74.02
54924;BME280;40825;52.270;20.984;2022-12-29T00:06:39;100329.84;;;5.33;73.98
54924;BME280;40825;52.270;20.984;2022-12-29T00:09:04;100330.10;;;5.34;73.94
54924;BME280;40825;52.270;20.984;2022-12-29T00:11:30;100329.90;;;5.34;73.62
54924;BME280;40825;52.270;20.984;2022-12-29T00:13:56;100326.48;;;5.34;73.63
54924;BME280;40825;52.270;20.984;2022-12-29T00:16:43;100325.21;;;5.36;74.10
54924;BME280;40825;52.270;20.984;2022-12-29T00:19:09;100316.62;;;5.38;73.75
54924;BME280;40825;52.270;20.984;2022-12-29T00:21:53;100313.69;;;5.39;73.96
54924;BME280;40825;52.270;20.984;2022-12-29T00:24:37;100314.84;;;5.40;73.76
54924;BME280;40825;52.270;20.984;2022-12-29T00:27:18;100314.41;;;5.40;73.89
54924;BME280;40825;52.270;20.984;2022-12-29T00:30:09;100314.32;;;5.42;73.71
54924;BME280;40825;52.270;20.984;2022-12-29T00:32:53;100320.02;;;5.41;73.29
54924;BME280;40825;52.270;20.984;2022-12-29T00:35:46;100316.76;;;5.41;73.52
54924;BME280;40825;52.270;20.984;2022-12-29T00:38:13;100319.41;;;5.42;73.53
54924;BME280;40825;52.270;20.984;2022-12-29T00:40:57;100317.49;;;5.41;73.29
54924;BME280;40825;52.270;20.984;2022-12-29T00:43:41;100320.04;;;5.41;73.08
54924;BME280;40825;52.270;20.984;2022-12-29T00:46:25;100317.89;;;5.39;73.06
54924;BME280;40825;52.270;20.984;2022-12-29T00:48:51;100321.73;;;5.40;73.49
54924;BME280;40825;52.270;20.984;2022-12-29T00:51:35;100324.40;;;5.39;73.50
54924;BME280;40825;52.270;20.984;2022-12-29T00:54:01;100319.41;;;5.38;73.02
54924;BME280;40825;52.270;20.984;2022-12-29T00:56:27;100320.86;;;5.40;73.36
54924;BME280;40825;52.270;20.984;2022-12-29T00:58:52;100318.85;;;5.40;73.41
54924;BME280;40825;52.270;20.984;2022-12-29T01:01:18;100316.80;;;5.41;73.19
54924;BME280;40825;52.270;20.984;2022-12-29T01:03:43;100309.35;;;5.42;73.22
54924;BME280;40825;52.270;20.984;2022-12-29T01:06:10;100307.20;;;5.42;73.37
54924;BME280;40825;52.270;20.984;2022-12-29T01:08:37;100299.73;;;5.43;73.43
54924;BME280;40825;52.270;20.984;2022-12-29T01:11:08;100294.36;;;5.43;73.48
54924;BME280;40825;52.270;20.984;2022-12-29T01:13:34;100289.63;;;5.43;73.08
54924;BME280;40825;52.270;20.984;2022-12-29T01:16:01;100286.39;;;5.43;73.20
54924;BME280;40825;52.270;20.984;2022-12-29T01:18:27;100284.75;;;5.44;73.05
54924;BME280;40825;52.270;20.984;2022-12-29T01:21:00;100278.42;;;5.45;72.99
54924;BME280;40825;52.270;20.984;2022-12-29T01:23:26;100279.48;;;5.47;73.21
54924;BME280;40825;52.270;20.984;2022-12-29T01:25:52;100274.46;;;5.48;73.23
54924;BME280;40825;52.270;20.984;2022-12-29T01:28:17;100274.42;;;5.48;73.26
54924;BME280;40825;52.270;20.984;2022-12-29T01:30:43;100271.98;;;5.49;72.98
54924;BME280;40825;52.270;20.984;2022-12-29T01:33:08;100273.01;;;5.50;73.13
54924;BME280;40825;52.270;20.984;2022-12-29T01:35:34;100273.17;;;5.52;72.75
54924;BME280;40825;52.270;20.984;2022-12-29T01:37:59;100267.82;;;5.52;72.99
54924;BME280;40825;52.270;20.984;2022-12-29T01:40:25;100265.91;;;5.52;72.97
54924;BME280;40825;52.270;20.984;2022-12-29T01:42:50;100260.52;;;5.51;72.46
54924;BME280;40825;52.270;20.984;2022-12-29T01:45:17;100259.99;;;5.49;72.63
54924;BME280;40825;52.270;20.984;2022-12-29T01:47:50;100254.84;;;5.48;72.80
54924;BME280;40825;52.270;20.984;2022-12-29T01:50:30;100249.30;;;5.47;72.84
54924;BME280;40825;52.270;20.984;2022-12-29T01:53:11;100246.98;;;5.46;72.85
54924;BME280;40825;52.270;20.984;2022-12-29T01:55:41;100249.80;;;5.44;72.74
54924;BME280;40825;52.270;20.984;2022-12-29T01:58:08;100250.08;;;5.43;72.86
54924;BME280;40825;52.270;20.984;2022-12-29T02:00:37;100249.52;;;5.42;72.88
54924;BME280;40825;52.270;20.984;2022-12-29T02:03:03;100248.65;;;5.38;72.83
54924;BME280;40825;52.270;20.984;2022-12-29T02:05:46;100245.21;;;5.35;73.12
54924;BME280;40825;52.270;20.984;2022-12-29T02:08:14;100242.38;;;5.32;73.15
54924;BME280;40825;52.270;20.984;2022-12-29T02:10:40;100235.92;;;5.30;73.42
54924;BME280;40825;52.270;20.984;2022-12-29T02:13:07;100222.98;;;5.27;73.55
54924;BME280;40825;52.270;20.984;2022-12-29T02:15:56;100230.96;;;5.25;73.84
54924;BME280;40825;52.270;20.984;2022-12-29T02:24:45;100247.20;;;5.14;74.85
54924;BME280;40825;52.270;20.984;2022-12-29T02:38:55;100247.04;;;4.91;76.58
54924;BME280;40825;52.270;20.984;2022-12-29T02:41:32;100251.71;;;4.87;77.15
54924;BME280;40825;52.270;20.984;2022-12-29T02:50:05;100256.23;;;4.76;78.71
54924;BME280;40825;52.270;20.984;2022-12-29T02:52:40;100254.57;;;4.71;79.21
54924;BME280;40825;52.270;20.984;2022-12-29T02:55:10;100259.23;;;4.68;78.75
54924;BME280;40825;52.270;20.984;2022-12-29T02:57:36;100261.20;;;4.65;79.27
54924;BME280;40825;52.270;20.984;2022-12-29T03:00:06;100262.92;;;4.62;79.78
54924;BME280;40825;52.270;20.984;2022-12-29T03:11:07;100262.91;;;4.44;82.05
54924;BME280;40825;52.270;20.984;2022-12-29T03:13:59;100262.39;;;4.37;83.02
54924;BME280;40825;52.270;20.984;2022-12-29T03:16:59;100263.31;;;4.31;81.90
54924;BME280;40825;52.270;20.984;2022-12-29T03:19:44;100256.46;;;4.25;82.06
54924;BME280;40825;52.270;20.984;2022-12-29T03:22:39;100249.08;;;4.20;82.88
54924;BME280;40825;52.270;20.984;2022-12-29T03:25:12;100243.37;;;4.11;84.49
54924;BME280;40825;52.270;20.984;2022-12-29T03:27:44;100233.41;;;4.05;85.14
54924;BME280;40825;52.270;20.984;2022-12-29T03:30:11;100220.16;;;4.00;85.47
54924;BME280;40825;52.270;20.984;2022-12-29T03:32:50;100214.08;;;3.96;85.48
54924;BME280;40825;52.270;20.984;2022-12-29T03:35:21;100202.14;;;3.92;84.55
54924;BME280;40825;52.270;20.984;2022-12-29T03:37:59;100189.59;;;3.89;85.07
54924;BME280;40825;52.270;20.984;2022-12-29T03:40:28;100178.59;;;3.87;85.90
54924;BME280;40825;52.270;20.984;2022-12-29T03:42:55;100171.65;;;3.85;86.01
54924;BME280;40825;52.270;20.984;2022-12-29T03:45:21;100158.40;;;3.84;86.65
54924;BME280;40825;52.270;20.984;2022-12-29T03:47:47;100154.05;;;3.81;87.10
54924;BME280;40825;52.270;20.984;2022-12-29T03:50:13;100152.54;;;3.79;87.32
54924;BME280;40825;52.270;20.984;2022-12-29T03:52:38;100168.08;;;3.78;86.30
54924;BME280;40825;52.270;20.984;2022-12-29T03:55:05;100202.74;;;3.79;86.00
54924;BME280;40825;52.270;20.984;2022-12-29T03:57:31;100191.02;;;3.78;87.00
54924;BME280;40825;52.270;20.984;2022-12-29T03:59:56;100177.05;;;3.77;86.91
54924;BME280;40825;52.270;20.984;2022-12-29T04:02:22;100179.54;;;3.75;86.51
54924;BME280;40825;52.270;20.984;2022-12-29T04:04:49;100177.06;;;3.73;86.02
54924;BME280;40825;52.270;20.984;2022-12-29T04:07:14;100186.57;;;3.73;85.76
54924;BME280;40825;52.270;20.984;2022-12-29T04:09:40;100183.07;;;3.73;85.65
54924;BME280;40825;52.270;20.984;2022-12-29T04:12:05;100178.31;;;3.73;85.46
54924;BME280;40825;52.270;20.984;2022-12-29T04:14:31;100167.98;;;3.72;85.68
54924;BME280;40825;52.270;20.984;2022-12-29T04:16:56;100168.19;;;3.72;84.97
54924;BME280;40825;52.270;20.984;2022-12-29T04:19:22;100169.08;;;3.72;85.88
54924;BME280;40825;52.270;20.984;2022-12-29T04:21:47;100167.25;;;3.73;85.89
54924;BME280;40825;52.270;20.984;2022-12-29T04:24:13;100171.78;;;3.73;85.41
54924;BME280;40825;52.270;20.984;2022-12-29T04:26:39;100180.89;;;3.74;85.43
54924;BME280;40825;52.270;20.984;2022-12-29T04:29:05;100182.91;;;3.75;85.73
54924;BME280;40825;52.270;20.984;2022-12-29T04:31:30;100176.09;;;3.76;85.18
54924;BME280;40825;52.270;20.984;2022-12-29T04:33:56;100165.02;;;3.76;85.59
54924;BME280;40825;52.270;20.984;2022-12-29T04:36:23;100158.20;;;3.75;85.59
54924;BME280;40825;52.270;20.984;2022-12-29T04:38:48;100148.52;;;3.74;85.28
54924;BME280;40825;52.270;20.984;2022-12-29T04:41:14;100142.08;;;3.73;85.02
54924;BME280;40825;52.270;20.984;2022-12-29T04:43:40;100153.17;;;3.73;84.88
54924;BME280;40825;52.270;20.984;2022-12-29T04:46:05;100154.98;;;3.72;85.57
54924;BME280;40825;52.270;20.984;2022-12-29T04:48:32;100157.48;;;3.71;85.18
54924;BME280;40825;52.270;20.984;2022-12-29T04:50:57;100151.55;;;3.71;85.15
54924;BME280;40825;52.270;20.984;2022-12-29T04:53:22;100147.46;;;3.70;85.17
54924;BME280;40825;52.270;20.984;2022-12-29T04:55:50;100160.46;;;3.70;84.91
54924;BME280;40825;52.270;20.984;2022-12-29T04:58:16;100142.97;;;3.69;84.98
54924;BME280;40825;52.270;20.984;2022-12-29T05:00:42;100135.41;;;3.69;84.78
54924;BME280;40825;52.270;20.984;2022-12-29T05:03:07;100126.98;;;3.69;84.51
54924;BME280;40825;52.270;20.984;2022-12-29T05:05:33;100131.64;;;3.68;84.39
54924;BME280;40825;52.270;20.984;2022-12-29T05:07:59;100133.71;;;3.67;84.41
54924;BME280;40825;52.270;20.984;2022-12-29T05:10:24;100130.48;;;3.67;84.26
54924;BME280;40825;52.270;20.984;2022-12-29T05:12:50;100132.95;;;3.67;84.27
54924;BME280;40825;52.270;20.984;2022-12-29T05:15:16;100129.45;;;3.67;84.12
54924;BME280;40825;52.270;20.984;2022-12-29T05:17:42;100128.86;;;3.67;83.98
54924;BME280;40825;52.270;20.984;2022-12-29T05:20:07;100129.66;;;3.68;83.63
54924;BME280;40825;52.270;20.984;2022-12-29T05:22:33;100125.67;;;3.69;83.56
54924;BME280;40825;52.270;20.984;2022-12-29T05:24:59;100122.86;;;3.71;83.65
54924;BME280;40825;52.270;20.984;2022-12-29T05:27:25;100119.08;;;3.72;83.10
54924;BME280;40825;52.270;20.984;2022-12-29T05:29:50;100103.36;;;3.75;82.56
54924;BME280;40825;52.270;20.984;2022-12-29T05:32:16;100101.41;;;3.76;82.73
54924;BME280;40825;52.270;20.984;2022-12-29T05:34:41;100106.30;;;3.77;82.55
54924;BME280;40825;52.270;20.984;2022-12-29T05:37:08;100103.20;;;3.78;82.56
54924;BME280;40825;52.270;20.984;2022-12-29T05:39:33;100092.78;;;3.78;82.57
54924;BME280;40825;52.270;20.984;2022-12-29T05:41:59;100092.74;;;3.79;82.53
54924;BME280;40825;52.270;20.984;2022-12-29T05:44:25;100092.70;;;3.77;81.99
54924;BME280;40825;52.270;20.984;2022-12-29T05:46:50;100092.90;;;3.77;81.96
54924;BME280;40825;52.270;20.984;2022-12-29T05:49:16;100096.38;;;3.76;81.55
54924;BME280;40825;52.270;20.984;2022-12-29T05:51:41;100095.06;;;3.75;81.77
54924;BME280;40825;52.270;20.984;2022-12-29T05:54:07;100088.45;;;3.72;81.57
54924;BME280;40825;52.270;20.984;2022-12-29T05:56:32;100080.26;;;3.71;81.86
54924;BME280;40825;52.270;20.984;2022-12-29T05:58:58;100087.70;;;3.71;81.80
54924;BME280;40825;52.270;20.984;2022-12-29T06:01:23;100093.34;;;3.69;81.21
54924;BME280;40825;52.270;20.984;2022-12-29T06:03:49;100095.33;;;3.70;80.96
54924;BME280;40825;52.270;20.984;2022-12-29T06:06:14;100091.02;;;3.73;81.00
54924;BME280;40825;52.270;20.984;2022-12-29T06:08:40;100087.85;;;3.77;80.64
54924;BME280;40825;52.270;20.984;2022-12-29T06:11:06;100088.08;;;3.78;80.20
54924;BME280;40825;52.270;20.984;2022-12-29T06:13:31;100084.89;;;3.79;80.38
54924;BME280;40825;52.270;20.984;2022-12-29T06:15:57;100082.92;;;3.82;80.65
54924;BME280;40825;52.270;20.984;2022-12-29T06:18:22;100088.98;;;3.84;80.44
54924;BME280;40825;52.270;20.984;2022-12-29T06:20:48;100094.02;;;3.85;79.34
54924;BME280;40825;52.270;20.984;2022-12-29T06:23:13;100093.38;;;3.88;80.26
54924;BME280;40825;52.270;20.984;2022-12-29T06:25:39;100089.76;;;3.91;80.25
54924;BME280;40825;52.270;20.984;2022-12-29T06:28:04;100091.60;;;3.92;79.74
54924;BME280;40825;52.270;20.984;2022-12-29T06:30:31;100088.23;;;3.91;79.46
54924;BME280;40825;52.270;20.984;2022-12-29T06:32:58;100092.06;;;3.91;79.88
54924;BME280;40825;52.270;20.984;2022-12-29T06:35:23;100094.61;;;3.92;79.42
54924;BME280;40825;52.270;20.984;2022-12-29T06:37:49;100101.13;;;3.94;79.23
54924;BME280;40825;52.270;20.984;2022-12-29T06:40:15;100101.46;;;3.95;79.32
54924;BME280;40825;52.270;20.984;2022-12-29T06:42:40;100107.85;;;3.96;79.11
54924;BME280;40825;52.270;20.984;2022-12-29T06:45:06;100111.47;;;3.98;79.30
54924;BME280;40825;52.270;20.984;2022-12-29T06:47:33;100110.88;;;3.98;79.48
54924;BME280;40825;52.270;20.984;2022-12-29T06:50:00;100113.55;;;3.99;79.69
54924;BME280;40825;52.270;20.984;2022-12-29T06:52:25;100110.40;;;3.99;79.34
54924;BME280;40825;52.270;20.984;2022-12-29T06:54:51;100113.34;;;4.00;79.48
54924;BME280;40825;52.270;20.984;2022-12-29T06:57:17;100112.94;;;4.01;78.81
54924;BME280;40825;52.270;20.984;2022-12-29T06:59:42;100107.71;;;4.01;78.80
54924;BME280;40825;52.270;20.984;2022-12-29T07:02:10;100103.01;;;4.03;77.92
54924;BME280;40825;52.270;20.984;2022-12-29T07:04:36;100097.09;;;4.06;78.27
54924;BME280;40825;52.270;20.984;2022-12-29T07:07:01;100097.01;;;4.10;78.20
54924;BME280;40825;52.270;20.984;2022-12-29T07:09:27;100093.36;;;4.13;78.14
54924;BME280;40825;52.270;20.984;2022-12-29T07:11:52;100092.71;;;4.16;78.19
54924;BME280;40825;52.270;20.984;2022-12-29T07:14:18;100092.27;;;4.20;78.07
54924;BME280;40825;52.270;20.984;2022-12-29T07:16:43;100089.52;;;4.23;77.74
54924;BME280;40825;52.270;20.984;2022-12-29T07:19:09;100084.35;;;4.27;77.99
54924;BME280;40825;52.270;20.984;2022-12-29T07:21:34;100080.70;;;4.30;76.80
54924;BME280;40825;52.270;20.984;2022-12-29T07:24:00;100078.11;;;4.35;77.49
54924;BME280;40825;52.270;20.984;2022-12-29T07:26:25;100081.94;;;4.39;77.26
54924;BME280;40825;52.270;20.984;2022-12-29T07:28:50;100076.55;;;4.44;77.52
54924;BME280;40825;52.270;20.984;2022-12-29T07:31:21;100070.23;;;4.45;76.26
54924;BME280;40825;52.270;20.984;2022-12-29T07:33:48;100069.39;;;4.50;76.60
54924;BME280;40825;52.270;20.984;2022-12-29T07:36:14;100071.73;;;4.54;77.06
54924;BME280;40825;52.270;20.984;2022-12-29T07:38:41;100077.73;;;4.58;76.49
54924;BME280;40825;52.270;20.984;2022-12-29T07:41:07;100079.58;;;4.60;76.27
54924;BME280;40825;52.270;20.984;2022-12-29T07:43:32;100076.15;;;4.64;75.45
54924;BME280;40825;52.270;20.984;2022-12-29T07:45:58;100075.61;;;4.72;75.23
54924;BME280;40825;52.270;20.984;2022-12-29T07:48:23;100079.63;;;4.78;75.80
54924;BME280;40825;52.270;20.984;2022-12-29T07:50:49;100080.40;;;4.81;75.37
54924;BME280;40825;52.270;20.984;2022-12-29T07:53:15;100080.21;;;4.85;74.75
54924;BME280;40825;52.270;20.984;2022-12-29T07:55:40;100079.49;;;4.90;75.07
54924;BME280;40825;52.270;20.984;2022-12-29T07:58:06;100076.02;;;4.93;75.75
54924;BME280;40825;52.270;20.984;2022-12-29T08:00:31;100072.35;;;4.94;74.75
54924;BME280;40825;52.270;20.984;2022-12-29T08:02:57;100070.20;;;4.94;74.63
54924;BME280;40825;52.270;20.984;2022-12-29T08:05:22;100066.16;;;4.98;75.43
54924;BME280;40825;52.270;20.984;2022-12-29T08:07:48;100064.54;;;5.05;74.91
54924;BME280;40825;52.270;20.984;2022-12-29T08:10:14;100063.63;;;5.10;72.71
54924;BME280;40825;52.270;20.984;2022-12-29T08:12:41;100061.85;;;5.19;73.42
54924;BME280;40825;52.270;20.984;2022-12-29T08:15:08;100063.08;;;5.27;73.72
54924;BME280;40825;52.270;20.984;2022-12-29T08:17:35;100059.74;;;5.34;72.99
54924;BME280;40825;52.270;20.984;2022-12-29T08:20:01;100057.63;;;5.44;73.58
54924;BME280;40825;52.270;20.984;2022-12-29T08:22:26;100056.06;;;5.57;72.49
54924;BME280;40825;52.270;20.984;2022-12-29T08:24:52;100060.18;;;5.72;72.70
54924;BME280;40825;52.270;20.984;2022-12-29T08:27:18;100066.88;;;5.88;73.26
54924;BME280;40825;52.270;20.984;2022-12-29T08:29:44;100069.58;;;5.95;72.31
54924;BME280;40825;52.270;20.984;2022-12-29T08:32:10;100074.71;;;5.97;71.73
54924;BME280;40825;52.270;20.984;2022-12-29T08:34:36;100065.34;;;5.97;72.02
54924;BME280;40825;52.270;20.984;2022-12-29T08:37:01;100067.61;;;6.00;70.88
54924;BME280;40825;52.270;20.984;2022-12-29T08:39:27;100072.97;;;6.08;70.68
54924;BME280;40825;52.270;20.984;2022-12-29T08:41:53;100079.09;;;6.22;71.20
54924;BME280;40825;52.270;20.984;2022-12-29T08:44:18;100083.20;;;6.29;69.86
54924;BME280;40825;52.270;20.984;2022-12-29T08:46:44;100091.33;;;6.31;68.94
54924;BME280;40825;52.270;20.984;2022-12-29T08:49:09;100089.80;;;6.30;69.37
54924;BME280;40825;52.270;20.984;2022-12-29T08:51:35;100090.33;;;6.32;68.82
54924;BME280;40825;52.270;20.984;2022-12-29T08:54:00;100085.69;;;6.32;68.88
54924;BME280;40825;52.270;20.984;2022-12-29T08:56:26;100082.90;;;6.36;68.88
54924;BME280;40825;52.270;20.984;2022-12-29T08:58:52;100084.80;;;6.42;69.73
54924;BME280;40825;52.270;20.984;2022-12-29T09:01:19;100082.08;;;6.51;67.93
54924;BME280;40825;52.270;20.984;2022-12-29T09:03:45;100081.48;;;6.56;69.24
54924;BME280;40825;52.270;20.984;2022-12-29T09:06:11;100080.88;;;6.58;69.16
54924;BME280;40825;52.270;20.984;2022-12-29T09:08:36;100082.29;;;6.63;69.58
54924;BME280;40825;52.270;20.984;2022-12-29T09:11:20;100075.87;;;6.65;67.92
54924;BME280;40825;52.270;20.984;2022-12-29T09:13:46;100074.16;;;6.67;67.91
54924;BME280;40825;52.270;20.984;2022-12-29T09:16:12;100075.86;;;6.67;66.69
54924;BME280;40825;52.270;20.984;2022-12-29T09:18:38;100070.86;;;6.72;67.00
54924;BME280;40825;52.270;20.984;2022-12-29T09:21:05;100069.10;;;6.85;68.11
54924;BME280;40825;52.270;20.984;2022-12-29T09:23:32;100066.12;;;7.00;67.71
54924;BME280;40825;52.270;20.984;2022-12-29T09:25:58;100066.79;;;7.11;66.08
54924;BME280;40825;52.270;20.984;2022-12-29T09:28:24;100059.80;;;7.19;65.32
54924;BME280;40825;52.270;20.984;2022-12-29T09:30:50;100056.96;;;7.26;66.36
54924;BME280;40825;52.270;20.984;2022-12-29T09:33:16;100054.73;;;7.40;67.05
54924;BME280;40825;52.270;20.984;2022-12-29T09:35:43;100059.19;;;7.44;65.30
54924;BME280;40825;52.270;20.984;2022-12-29T09:38:09;100061.16;;;7.41;65.59
54924;BME280;40825;52.270;20.984;2022-12-29T09:40:35;100061.66;;;7.33;64.79
54924;BME280;40825;52.270;20.984;2022-12-29T09:43:11;100056.80;;;7.29;66.44
54924;BME280;40825;52.270;20.984;2022-12-29T09:48:31;100049.52;;;7.19;66.32
54924;BME280;40825;52.270;20.984;2022-12-29T09:51:03;100046.86;;;7.23;65.77
54924;BME280;40825;52.270;20.984;2022-12-29T09:53:38;100041.29;;;7.27;65.57
54924;BME280;40825;52.270;20.984;2022-12-29T09:56:13;100041.27;;;7.30;65.48
54924;BME280;40825;52.270;20.984;2022-12-29T09:58:46;100042.45;;;7.31;64.91
54924;BME280;40825;52.270;20.984;2022-12-29T10:03:52;100035.20;;;7.25;65.25
54924;BME280;40825;52.270;20.984;2022-12-29T10:06:40;100034.86;;;7.19;64.83
54924;BME280;40825;52.270;20.984;2022-12-29T10:09:19;100027.27;;;7.15;64.84
54924;BME280;40825;52.270;20.984;2022-12-29T10:25:47;100018.64;;;7.09;65.72
54924;BME280;40825;52.270;20.984;2022-12-29T10:28:22;100014.17;;;7.08;64.75
54924;BME280;40825;52.270;20.984;2022-12-29T10:30:49;100014.31;;;7.09;65.52
54924;BME280;40825;52.270;20.984;2022-12-29T10:33:19;100015.35;;;7.12;65.89
54924;BME280;40825;52.270;20.984;2022-12-29T10:35:49;100013.84;;;7.15;65.63
54924;BME280;40825;52.270;20.984;2022-12-29T10:41:02;100008.63;;;7.19;64.87
54924;BME280;40825;52.270;20.984;2022-12-29T10:43:51;100006.22;;;7.21;64.50
54924;BME280;40825;52.270;20.984;2022-12-29T10:46:33;100003.88;;;7.28;64.99
54924;BME280;40825;52.270;20.984;2022-12-29T10:49:00;99997.07;;;7.33;64.63
54924;BME280;40825;52.270;20.984;2022-12-29T10:51:32;99997.84;;;7.39;64.29
54924;BME280;40825;52.270;20.984;2022-12-29T10:54:05;99995.35;;;7.43;64.52
54924;BME280;40825;52.270;20.984;2022-12-29T10:56:35;99998.64;;;7.46;64.43
54924;BME280;40825;52.270;20.984;2022-12-29T10:59:10;100002.38;;;7.49;64.54
54924;BME280;40825;52.270;20.984;2022-12-29T11:01:53;99995.23;;;7.48;63.70
54924;BME280;40825;52.270;20.984;2022-12-29T11:06:53;99989.55;;;7.52;63.99
54924;BME280;40825;52.270;20.984;2022-12-29T11:09:25;99989.52;;;7.60;64.54
54924;BME280;40825;52.270;20.984;2022-12-29T11:11:52;99987.82;;;7.65;64.68
54924;BME280;40825;52.270;20.984;2022-12-29T11:14:26;99984.21;;;7.67;63.90
54924;BME280;40825;52.270;20.984;2022-12-29T11:17:03;99982.05;;;7.70;64.27
54924;BME280;40825;52.270;20.984;2022-12-29T11:19:32;99981.48;;;7.74;64.48
54924;BME280;40825;52.270;20.984;2022-12-29T11:24:44;99976.91;;;7.80;64.12
54924;BME280;40825;52.270;20.984;2022-12-29T11:27:23;99969.11;;;7.83;63.75
54924;BME280;40825;52.270;20.984;2022-12-29T11:29:50;99972.98;;;7.85;62.90
54924;BME280;40825;52.270;20.984;2022-12-29T11:32:25;99974.10;;;7.87;63.83
54924;BME280;40825;52.270;20.984;2022-12-29T11:34:51;99979.54;;;7.92;64.13
54924;BME280;40825;52.270;20.984;2022-12-29T11:37:28;99983.91;;;7.93;63.53
54924;BME280;40825;52.270;20.984;2022-12-29T11:45:15;99988.55;;;7.85;63.44
54924;BME280;40825;52.270;20.984;2022-12-29T11:47:44;99988.52;;;7.85;63.70
54924;BME280;40825;52.270;20.984;2022-12-29T11:50:18;99984.30;;;7.86;63.14
54924;BME280;40825;52.270;20.984;2022-12-29T11:52:44;99980.02;;;7.90;63.76
54924;BME280;40825;52.270;20.984;2022-12-29T11:55:21;99982.42;;;7.95;64.17
54924;BME280;40825;52.270;20.984;2022-12-29T11:57:50;99983.58;;;7.98;64.01
54924;BME280;40825;52.270;20.984;2022-12-29T12:00:20;99982.09;;;8.01;63.25
54924;BME280;40825;52.270;20.984;2022-12-29T12:05:50;99974.67;;;8.02;63.81
54924;BME280;40825;52.270;20.984;2022-12-29T12:08:39;99980.19;;;8.05;63.69
54924;BME280;40825;52.270;20.984;2022-12-29T12:11:24;99974.94;;;8.07;63.12
54924;BME280;40825;52.270;20.984;2022-12-29T12:16:36;99973.86;;;8.13;63.56
54924;BME280;40825;52.270;20.984;2022-12-29T12:19:28;99973.12;;;8.15;63.84
54924;BME280;40825;52.270;20.984;2022-12-29T12:24:54;99973.77;;;8.15;63.81
54924;BME280;40825;52.270;20.984;2022-12-29T12:27:37;99971.11;;;8.17;63.58
54924;BME280;40825;52.270;20.984;2022-12-29T12:30:19;99969.45;;;8.20;63.89
54924;BME280;40825;52.270;20.984;2022-12-29T12:33:04;99965.33;;;8.21;63.39
54924;BME280;40825;52.270;20.984;2022-12-29T12:38:42;99961.67;;;8.23;63.53
54924;BME280;40825;52.270;20.984;2022-12-29T12:41:13;99949.48;;;8.26;63.60
54924;BME280;40825;52.270;20.984;2022-12-29T12:44:53;99943.77;;;8.31;64.04
54924;BME280;40825;52.270;20.984;2022-12-29T12:58:31;99942.72;;;8.48;64.14
54924;BME280;40825;52.270;20.984;2022-12-29T13:06:52;99939.74;;;8.59;64.08
54924;BME280;40825;52.270;20.984;2022-12-29T13:15:12;99947.05;;;8.61;62.87
54924;BME280;40825;52.270;20.984;2022-12-29T13:17:53;99942.89;;;8.62;62.82
54924;BME280;40825;52.270;20.984;2022-12-29T13:20:41;99948.52;;;8.63;63.34
54924;BME280;40825;52.270;20.984;2022-12-29T13:23:29;99950.60;;;8.64;62.74
54924;BME280;40825;52.270;20.984;2022-12-29T13:26:17;99949.52;;;8.65;62.99
54924;BME280;40825;52.270;20.984;2022-12-29T13:31:56;99955.16;;;8.64;63.51
54924;BME280;40825;52.270;20.984;2022-12-29T13:37:09;99955.92;;;8.61;63.27
54924;BME280;40825;52.270;20.984;2022-12-29T13:39:40;99952.36;;;8.60;63.40
54924;BME280;40825;52.270;20.984;2022-12-29T13:42:09;99949.89;;;8.58;63.34
54924;BME280;40825;52.270;20.984;2022-12-29T13:44:59;99949.27;;;8.57;63.46
54924;BME280;40825;52.270;20.984;2022-12-29T13:47:32;99958.77;;;8.57;63.74
54924;BME280;40825;52.270;20.984;2022-12-29T13:50:01;99961.91;;;8.56;63.63
54924;BME280;40825;52.270;20.984;2022-12-29T13:55:35;99964.63;;;8.53;63.96
54924;BME280;40825;52.270;20.984;2022-12-29T13:58:15;99966.09;;;8.53;64.07
54924;BME280;40825;52.270;20.984;2022-12-29T14:01:00;99969.19;;;8.52;64.13
54924;BME280;40825;52.270;20.984;2022-12-29T14:09:03;99968.29;;;8.56;63.99
54924;BME280;40825;52.270;20.984;2022-12-29T14:11:33;99964.91;;;8.57;64.13
54924;BME280;40825;52.270;20.984;2022-12-29T14:14:11;99969.24;;;8.58;63.71
54924;BME280;40825;52.270;20.984;2022-12-29T14:16:38;99970.33;;;8.59;63.66
54924;BME280;40825;52.270;20.984;2022-12-29T14:19:14;99967.52;;;8.60;64.06
54924;BME280;40825;52.270;20.984;2022-12-29T14:21:52;99965.76;;;8.60;63.85
54924;BME280;40825;52.270;20.984;2022-12-29T14:29:50;99957.58;;;8.60;63.16
54924;BME280;40825;52.270;20.984;2022-12-29T14:34:52;99949.57;;;8.59;62.83
54924;BME280;40825;52.270;20.984;2022-12-29T14:37:25;99947.17;;;8.60;62.98
54924;BME280;40825;52.270;20.984;2022-12-29T14:42:39;99952.27;;;8.62;63.10
54924;BME280;40825;52.270;20.984;2022-12-29T14:45:08;99951.89;;;8.62;63.02
54924;BME280;40825;52.270;20.984;2022-12-29T14:47:49;99952.16;;;8.63;63.01
54924;BME280;40825;52.270;20.984;2022-12-29T14:50:22;99957.98;;;8.63;63.53
54924;BME280;40825;52.270;20.984;2022-12-29T14:53:04;99960.34;;;8.62;63.26
54924;BME280;40825;52.270;20.984;2022-12-29T14:55:44;99960.11;;;8.63;63.48
54924;BME280;40825;52.270;20.984;2022-12-29T15:00:41;99960.52;;;8.64;63.03
54924;BME280;40825;52.270;20.984;2022-12-29T15:03:29;99956.39;;;8.64;63.16
54924;BME280;40825;52.270;20.984;2022-12-29T15:08:36;99956.92;;;8.61;63.07
54924;BME280;40825;52.270;20.984;2022-12-29T15:11:10;99961.62;;;8.56;63.41
54924;BME280;40825;52.270;20.984;2022-12-29T15:13:40;99957.23;;;8.48;63.64
54924;BME280;40825;52.270;20.984;2022-12-29T15:16:33;99958.21;;;8.42;63.70
54924;BME280;40825;52.270;20.984;2022-12-29T15:19:02;99968.98;;;8.36;64.02